Time;durP1;ratioP1;P1;durP2;ratioP2;P2;SDS_P1;SDS_P2;PMS_P1;PMS_P2;Temp;Humidity;BMP_temperature;BMP_pressure;BME280_temperature;BME280_humidity;BME280_pressure;Samples;Min_cycle;Max_cycle;Signal;HPM_P1;HPM_P2
2022/10/16 00:02:14;;;;;;;;;;;14.00;99.90;;;;;;5094467;28;19931;-76
2022/10/16 00:04:39;;;;;;;;;;;14.00;99.90;;;;;;5099340;28;19974;-75
2022/10/16 00:07:05;;;;;;;;;;;14.00;99.90;;;;;;5059210;28;20371;-76
2022/10/16 00:09:30;;;;;;;;;;;14.10;99.90;;;;;;5081383;28;19920;-76
2022/10/16 00:11:56;;;;;;;;;;;14.20;99.90;;;;;;5066037;28;19916;-76
2022/10/16 00:14:22;;;;;;;;;;;14.40;99.90;;;;;;5098090;27;19919;-77
2022/10/16 00:16:47;;;;;;;;;;;14.50;99.90;;;;;;5047073;28;19913;-77
2022/10/16 00:19:12;;;;;;;;;;;14.50;99.90;;;;;;5049065;28;19953;-76
2022/10/16 00:21:38;;;;;;;;;;;14.50;99.90;;;;;;5067380;28;19923;-76
2022/10/16 00:24:05;;;;;;;;;;;14.40;99.90;;;;;;5067113;28;19961;-76
2022/10/16 00:26:32;;;;;;;;;;;14.40;99.90;;;;;;5094195;28;19947;-76
2022/10/16 00:28:58;;;;;;;;;;;14.30;99.90;;;;;;5081282;28;20443;-76
2022/10/16 00:31:23;;;;;;;;;;;14.30;99.90;;;;;;5080409;28;19916;-76
2022/10/16 00:33:49;;;;;;;;;;;14.30;99.90;;;;;;5076371;28;19976;-77
2022/10/16 00:36:16;;;;;;;;;;;14.30;99.90;;;;;;5084016;28;19926;-77
2022/10/16 00:38:42;;;;;;;;;;;14.30;99.90;;;;;;5084489;28;20850;-77
2022/10/16 00:41:10;;;;;;;;;;;14.10;99.90;;;;;;5066503;28;20011;-76
2022/10/16 00:43:39;;;;;;;;;;;14.10;99.90;;;;;;5084291;28;19916;-76
2022/10/16 00:46:09;;;;;;;;;;;14.00;99.90;;;;;;5096124;27;19916;-75
2022/10/16 00:48:34;;;;;;;;;;;13.80;99.90;;;;;;5058319;28;19916;-76
2022/10/16 00:51:00;;;;;;;;;;;13.70;99.90;;;;;;5073379;28;19924;-76
2022/10/16 00:53:26;;;;;;;;;;;13.60;99.90;;;;;;5097561;28;19916;-76
2022/10/16 00:55:52;;;;;;;;;;;13.60;99.90;;;;;;5091555;28;19965;-76
2022/10/16 00:58:17;;;;;;;;;;;13.50;99.90;;;;;;5082351;28;20695;-76
2022/10/16 01:00:43;;;;;;;;;;;13.50;99.90;;;;;;5070465;28;20010;-76
2022/10/16 01:03:23;;;;;;;;;;;13.40;99.90;;;;;;5068427;28;19965;-76
2022/10/16 01:05:54;;;;;;;;;;;13.40;99.90;;;;;;5083333;28;19982;-76
2022/10/16 01:08:28;;;;;;;;;;;13.50;99.90;;;;;;5073462;28;19963;-76
2022/10/16 01:10:53;;;;;;;;;;;13.60;99.90;;;;;;5071402;28;19939;-76
2022/10/16 01:13:23;;;;;;;;;;;13.60;99.90;;;;;;5064253;28;19927;-76
2022/10/16 01:15:51;;;;;;;;;;;13.60;99.90;;;;;;5074656;28;19927;-76
2022/10/16 01:18:17;;;;;;;;;;;13.50;99.90;;;;;;5080005;28;19951;-76
2022/10/16 01:20:48;;;;;;;;;;;13.40;99.90;;;;;;5088951;28;19967;-75
2022/10/16 01:23:14;;;;;;;;;;;13.40;99.90;;;;;;5061517;28;19966;-75
2022/10/16 01:25:39;;;;;;;;;;;13.40;99.90;;;;;;5063849;28;19920;-76
2022/10/16 01:28:06;;;;;;;;;;;13.40;99.90;;;;;;5065130;28;20364;-75
2022/10/16 01:30:32;;;;;;;;;;;13.40;99.90;;;;;;5071327;28;19920;-76
2022/10/16 01:33:03;;;;;;;;;;;13.30;99.90;;;;;;5093612;28;20003;-76
2022/10/16 01:35:29;;;;;;;;;;;13.40;99.90;;;;;;5074237;28;20000;-76
2022/10/16 01:38:07;;;;;;;;;;;13.50;99.90;;;;;;5082468;28;19965;-76
2022/10/16 01:40:34;;;;;;;;;;;13.50;99.90;;;;;;5057495;28;19961;-76
2022/10/16 01:43:02;;;;;;;;;;;13.60;99.90;;;;;;5071707;28;19917;-76
2022/10/16 01:45:28;;;;;;;;;;;13.60;99.90;;;;;;5050975;28;19924;-76
2022/10/16 01:47:54;;;;;;;;;;;13.60;99.90;;;;;;5083013;28;19999;-75
2022/10/16 01:50:20;;;;;;;;;;;13.50;99.90;;;;;;5077085;28;20345;-76
2022/10/16 01:52:47;;;;;;;;;;;13.40;99.90;;;;;;5073795;28;20017;-76
2022/10/16 01:55:14;;;;;;;;;;;13.40;99.90;;;;;;5064362;28;19916;-76
2022/10/16 01:57:42;;;;;;;;;;;13.50;99.90;;;;;;5082702;28;20012;-76
2022/10/16 02:00:10;;;;;;;;;;;13.60;99.90;;;;;;5075151;28;19951;-76
2022/10/16 02:02:36;;;;;;;;;;;13.60;99.90;;;;;;5062903;28;20067;-76
2022/10/16 02:05:07;;;;;;;;;;;13.60;99.90;;;;;;5068216;28;19978;-76
2022/10/16 02:07:33;;;;;;;;;;;13.50;99.90;;;;;;5066071;28;20002;-76
2022/10/16 02:10:00;;;;;;;;;;;13.50;99.90;;;;;;5088295;28;20295;-76
2022/10/16 02:12:27;;;;;;;;;;;13.40;99.90;;;;;;5085514;28;19937;-75
2022/10/16 02:14:53;;;;;;;;;;;13.30;99.90;;;;;;5082579;28;20428;-75
2022/10/16 02:17:19;;;;;;;;;;;13.30;99.90;;;;;;5056550;28;20440;-76
2022/10/16 02:19:45;;;;;;;;;;;13.20;99.90;;;;;;5080750;28;19912;-75
2022/10/16 02:22:26;;;;;;;;;;;13.30;99.90;;;;;;5062331;28;19916;-76
2022/10/16 02:25:15;;;;;;;;;;;13.30;99.90;;;;;;5063382;28;20395;-76
2022/10/16 02:27:41;;;;;;;;;;;13.30;99.90;;;;;;5066881;28;19924;-76
2022/10/16 02:30:08;;;;;;;;;;;13.20;99.90;;;;;;5063220;28;19924;-77
2022/10/16 02:32:35;;;;;;;;;;;13.10;99.90;;;;;;5096249;28;19916;-76
2022/10/16 02:35:02;;;;;;;;;;;13.00;99.90;;;;;;5069879;28;19935;-76
2022/10/16 02:37:28;;;;;;;;;;;13.00;99.90;;;;;;5090400;28;19920;-76
2022/10/16 02:39:54;;;;;;;;;;;12.90;99.90;;;;;;5082735;28;19942;-76
2022/10/16 02:42:20;;;;;;;;;;;12.90;99.90;;;;;;5081280;28;19917;-76
2022/10/16 02:44:45;;;;;;;;;;;12.80;99.90;;;;;;5081079;28;19923;-77
2022/10/16 02:47:12;;;;;;;;;;;12.70;99.90;;;;;;5076479;28;20027;-77
2022/10/16 02:49:37;;;;;;;;;;;12.50;99.90;;;;;;5076844;28;19924;-76
2022/10/16 02:52:03;;;;;;;;;;;12.40;99.90;;;;;;5062891;28;20431;-76
2022/10/16 02:54:28;;;;;;;;;;;12.30;99.90;;;;;;5080969;28;19926;-76
2022/10/16 02:56:54;;;;;;;;;;;12.30;99.90;;;;;;5084647;28;20291;-76
2022/10/16 02:59:19;;;;;;;;;;;12.30;99.90;;;;;;5095284;28;19989;-75
2022/10/16 03:01:45;;;;;;;;;;;12.40;99.90;;;;;;5083624;28;19966;-76
2022/10/16 03:04:11;;;;;;;;;;;12.50;99.90;;;;;;5054942;28;20008;-76
2022/10/16 03:06:36;;;;;;;;;;;12.50;99.90;;;;;;5067712;28;19916;-76
2022/10/16 03:09:02;;;;;;;;;;;12.50;99.90;;;;;;5060568;28;19916;-76
2022/10/16 03:11:28;;;;;;;;;;;12.50;99.90;;;;;;5056623;28;19981;-77
2022/10/16 03:13:53;;;;;;;;;;;12.60;99.90;;;;;;5057401;28;20346;-76
2022/10/16 03:16:19;;;;;;;;;;;12.60;99.90;;;;;;5068148;28;20006;-77
2022/10/16 03:18:47;;;;;;;;;;;12.50;99.90;;;;;;5084943;28;20014;-76
2022/10/16 03:21:12;;;;;;;;;;;12.50;99.90;;;;;;5086171;28;19915;-76
2022/10/16 03:23:38;;;;;;;;;;;12.40;99.90;;;;;;5087241;28;19922;-77
2022/10/16 03:26:03;;;;;;;;;;;12.50;99.90;;;;;;5071814;28;20432;-76
2022/10/16 03:28:29;;;;;;;;;;;12.50;99.90;;;;;;5084218;28;19963;-77
2022/10/16 03:30:54;;;;;;;;;;;12.50;99.90;;;;;;5055672;28;19947;-76
2022/10/16 03:33:20;;;;;;;;;;;12.50;99.90;;;;;;5091511;28;19915;-76
2022/10/16 03:35:50;;;;;;;;;;;12.40;99.90;;;;;;5062920;28;19917;-77
2022/10/16 03:38:16;;;;;;;;;;;12.30;99.90;;;;;;5074189;28;19921;-76
2022/10/16 03:40:41;;;;;;;;;;;12.30;99.90;;;;;;5064440;28;20407;-76
2022/10/16 03:43:07;;;;;;;;;;;12.10;99.90;;;;;;5064880;28;19982;-76
2022/10/16 03:45:32;;;;;;;;;;;12.00;99.90;;;;;;5049718;28;19916;-76
2022/10/16 03:47:58;;;;;;;;;;;12.00;99.90;;;;;;5066251;28;20367;-76
2022/10/16 03:50:23;;;;;;;;;;;11.90;99.90;;;;;;5067016;28;19927;-77
2022/10/16 03:52:49;;;;;;;;;;;11.80;99.90;;;;;;5063315;28;19967;-76
2022/10/16 03:55:14;;;;;;;;;;;11.80;99.90;;;;;;5067164;28;19923;-76
2022/10/16 03:57:40;;;;;;;;;;;11.80;99.90;;;;;;5068414;28;19916;-76
2022/10/16 04:00:06;;;;;;;;;;;11.80;99.90;;;;;;5070528;28;19912;-76
2022/10/16 04:02:31;;;;;;;;;;;11.70;99.90;;;;;;5078873;28;20007;-75
2022/10/16 04:04:57;;;;;;;;;;;11.60;99.90;;;;;;5066794;28;19942;-76
2022/10/16 04:07:22;;;;;;;;;;;11.60;99.90;;;;;;5085651;28;19926;-76
2022/10/16 04:09:48;;;;;;;;;;;11.50;99.90;;;;;;5098431;28;20374;-76
2022/10/16 04:12:13;;;;;;;;;;;11.40;99.90;;;;;;5067059;28;19916;-76
2022/10/16 04:14:39;;;;;;;;;;;11.40;99.90;;;;;;5084224;28;19981;-76
2022/10/16 04:17:04;;;;;;;;;;;11.50;99.90;;;;;;5084985;28;19959;-76
2022/10/16 04:19:30;;;;;;;;;;;11.50;99.90;;;;;;5073452;28;20411;-76
2022/10/16 04:21:55;;;;;;;;;;;11.60;99.90;;;;;;5083897;28;19927;-76
2022/10/16 04:24:21;;;;;;;;;;;11.60;99.90;;;;;;5067479;28;19936;-75
2022/10/16 04:26:46;;;;;;;;;;;11.60;99.90;;;;;;5075669;28;20290;-76
2022/10/16 04:29:12;;;;;;;;;;;11.60;99.90;;;;;;5083757;28;19993;-76
2022/10/16 04:31:37;;;;;;;;;;;11.70;99.90;;;;;;5101995;28;20294;-76
2022/10/16 04:34:02;;;;;;;;;;;11.70;99.90;;;;;;5085496;28;19962;-76
2022/10/16 04:36:28;;;;;;;;;;;11.60;99.90;;;;;;5076209;28;19947;-76
2022/10/16 04:38:53;;;;;;;;;;;11.60;99.90;;;;;;5079394;28;20042;-76
2022/10/16 04:41:19;;;;;;;;;;;11.60;99.90;;;;;;5081729;28;19942;-76
2022/10/16 04:43:44;;;;;;;;;;;11.50;99.90;;;;;;5071787;28;19912;-75
2022/10/16 04:46:10;;;;;;;;;;;11.50;99.90;;;;;;5065505;28;19945;-76
2022/10/16 04:48:36;;;;;;;;;;;11.40;99.90;;;;;;5084739;28;19912;-76
2022/10/16 04:51:01;;;;;;;;;;;11.40;99.90;;;;;;5078339;28;19950;-76
2022/10/16 04:53:27;;;;;;;;;;;11.50;99.90;;;;;;5065132;28;20248;-75
2022/10/16 04:55:52;;;;;;;;;;;11.60;99.90;;;;;;5084178;28;19930;-75
2022/10/16 04:58:18;;;;;;;;;;;11.60;99.90;;;;;;5084180;28;20346;-76
2022/10/16 05:00:44;;;;;;;;;;;11.70;99.90;;;;;;5102944;28;20403;-76
2022/10/16 05:03:09;;;;;;;;;;;11.70;99.90;;;;;;5066079;28;19942;-76
2022/10/16 05:05:35;;;;;;;;;;;11.70;99.90;;;;;;5084455;28;19916;-76
2022/10/16 05:08:01;;;;;;;;;;;11.60;99.90;;;;;;5083887;28;19973;-75
2022/10/16 05:10:27;;;;;;;;;;;11.50;99.90;;;;;;5085853;28;20291;-76
2022/10/16 05:12:53;;;;;;;;;;;11.50;99.90;;;;;;5085149;28;19920;-76
2022/10/16 05:15:19;;;;;;;;;;;11.40;99.90;;;;;;5068099;28;19926;-76
2022/10/16 05:17:44;;;;;;;;;;;11.40;99.90;;;;;;5085212;28;20480;-76
2022/10/16 05:20:10;;;;;;;;;;;11.30;99.90;;;;;;5065576;28;19916;-75
2022/10/16 05:22:36;;;;;;;;;;;11.30;99.90;;;;;;5084020;28;20399;-75
2022/10/16 05:25:01;;;;;;;;;;;11.20;99.90;;;;;;5065828;28;19916;-75
2022/10/16 05:27:27;;;;;;;;;;;11.10;99.90;;;;;;5082365;28;19920;-76
2022/10/16 05:29:52;;;;;;;;;;;11.00;99.90;;;;;;5064198;28;20029;-76
2022/10/16 05:32:18;;;;;;;;;;;11.00;99.90;;;;;;5085001;28;20961;-75
2022/10/16 05:34:44;;;;;;;;;;;10.90;99.90;;;;;;5089421;28;19916;-76
2022/10/16 05:37:11;;;;;;;;;;;10.90;99.90;;;;;;5083923;28;20337;-76
2022/10/16 05:39:37;;;;;;;;;;;10.90;99.90;;;;;;5079730;28;19939;-76
2022/10/16 05:42:02;;;;;;;;;;;10.80;99.90;;;;;;5056871;28;20649;-76
2022/10/16 05:44:28;;;;;;;;;;;10.80;99.90;;;;;;5061918;28;19919;-76
2022/10/16 05:46:54;;;;;;;;;;;10.80;99.90;;;;;;5081084;28;19916;-76
2022/10/16 05:49:19;;;;;;;;;;;10.80;99.90;;;;;;5076691;28;19935;-76
2022/10/16 05:51:44;;;;;;;;;;;10.90;99.90;;;;;;5084544;28;19939;-76
2022/10/16 05:54:10;;;;;;;;;;;10.90;99.90;;;;;;5104249;28;20022;-75
2022/10/16 05:56:35;;;;;;;;;;;10.90;99.90;;;;;;5076273;28;19918;-75
2022/10/16 05:59:02;;;;;;;;;;;10.90;99.90;;;;;;5084835;28;19916;-75
2022/10/16 06:01:28;;;;;;;;;;;10.90;99.90;;;;;;5082719;28;19927;-75
2022/10/16 06:03:53;;;;;;;;;;;10.90;99.90;;;;;;5082513;28;20350;-76
2022/10/16 06:06:20;;;;;;;;;;;10.80;99.90;;;;;;5085999;28;19912;-75
2022/10/16 06:08:46;;;;;;;;;;;10.70;99.90;;;;;;5070050;28;19964;-75
2022/10/16 06:11:14;;;;;;;;;;;10.60;99.90;;;;;;5073468;28;19925;-76
2022/10/16 06:13:41;;;;;;;;;;;10.50;99.90;;;;;;5082550;28;19916;-76
2022/10/16 06:16:07;;;;;;;;;;;10.40;99.90;;;;;;5082662;28;19941;-76
2022/10/16 06:18:32;;;;;;;;;;;10.30;99.90;;;;;;5080204;28;19926;-76
2022/10/16 06:20:58;;;;;;;;;;;10.30;99.90;;;;;;5083180;28;20061;-75
2022/10/16 06:23:24;;;;;;;;;;;10.20;99.90;;;;;;5066071;28;19920;-76
2022/10/16 06:25:50;;;;;;;;;;;10.20;99.90;;;;;;5062988;28;19917;-75
2022/10/16 06:28:15;;;;;;;;;;;10.10;99.90;;;;;;5081769;28;19912;-75
2022/10/16 06:30:43;;;;;;;;;;;10.00;99.90;;;;;;5084138;28;19924;-75
2022/10/16 06:33:09;;;;;;;;;;;10.00;99.90;;;;;;5076070;28;19912;-76
2022/10/16 06:35:35;;;;;;;;;;;10.00;99.90;;;;;;5084557;28;19938;-75
2022/10/16 06:38:01;;;;;;;;;;;9.90;99.90;;;;;;5079117;28;19924;-76
2022/10/16 06:40:26;;;;;;;;;;;10.00;99.90;;;;;;5060960;28;19916;-76
2022/10/16 06:42:54;;;;;;;;;;;10.00;99.90;;;;;;5063883;28;19928;-75
2022/10/16 06:45:19;;;;;;;;;;;10.00;99.90;;;;;;5063839;28;19986;-75
2022/10/16 06:47:45;;;;;;;;;;;10.10;99.90;;;;;;5059995;28;19916;-75
2022/10/16 06:50:11;;;;;;;;;;;10.20;99.90;;;;;;5070117;28;19930;-75
2022/10/16 06:52:36;;;;;;;;;;;10.30;99.90;;;;;;5090409;28;20887;-76
2022/10/16 06:55:02;;;;;;;;;;;10.30;99.90;;;;;;5076002;28;20298;-75
2022/10/16 06:57:28;;;;;;;;;;;10.40;99.90;;;;;;5076411;28;19966;-75
2022/10/16 06:59:53;;;;;;;;;;;10.40;99.90;;;;;;5089878;27;19955;-76
2022/10/16 07:02:19;;;;;;;;;;;10.50;99.90;;;;;;5051292;28;19970;-75
2022/10/16 07:04:45;;;;;;;;;;;10.50;99.90;;;;;;5065795;28;19988;-76
2022/10/16 07:07:10;;;;;;;;;;;10.60;99.90;;;;;;5061009;28;19916;-76
2022/10/16 07:09:36;;;;;;;;;;;10.60;99.90;;;;;;5082287;28;19923;-76
2022/10/16 07:12:01;;;;;;;;;;;10.60;99.90;;;;;;5063618;28;20068;-76
2022/10/16 07:14:27;;;;;;;;;;;10.60;99.90;;;;;;5058645;28;19916;-75
2022/10/16 07:16:53;;;;;;;;;;;10.60;99.90;;;;;;5060837;28;19999;-75
2022/10/16 07:19:18;;;;;;;;;;;10.60;99.90;;;;;;5079049;28;19912;-75
2022/10/16 07:21:44;;;;;;;;;;;10.70;99.90;;;;;;5089441;27;19917;-75
2022/10/16 07:24:14;;;;;;;;;;;10.90;99.90;;;;;;5061899;28;20379;-75
2022/10/16 07:26:40;;;;;;;;;;;11.00;99.90;;;;;;5079729;28;20829;-74
2022/10/16 07:29:24;;;;;;;;;;;11.20;99.90;;;;;;5058910;28;20400;-75
2022/10/16 07:31:49;;;;;;;;;;;11.30;99.90;;;;;;5068180;28;20015;-75
2022/10/16 07:34:16;;;;;;;;;;;11.40;99.90;;;;;;5084330;28;20469;-75
2022/10/16 07:36:41;;;;;;;;;;;11.50;99.90;;;;;;5081596;28;20298;-75
2022/10/16 07:39:07;;;;;;;;;;;11.50;99.90;;;;;;5086622;28;19923;-76
2022/10/16 07:41:36;;;;;;;;;;;11.50;99.90;;;;;;5085475;28;19912;-75
2022/10/16 07:44:02;;;;;;;;;;;11.60;99.90;;;;;;5080518;28;20615;-75
2022/10/16 07:46:28;;;;;;;;;;;11.60;99.90;;;;;;5073712;28;19956;-75
2022/10/16 07:48:53;;;;;;;;;;;11.70;99.90;;;;;;5091244;28;19916;-75
2022/10/16 07:51:20;;;;;;;;;;;11.80;99.90;;;;;;5085931;28;20011;-75
2022/10/16 07:53:46;;;;;;;;;;;12.10;99.90;;;;;;5065769;28;19950;-75
2022/10/16 07:56:12;;;;;;;;;;;12.30;99.90;;;;;;5047632;28;19925;-75
2022/10/16 07:58:37;;;;;;;;;;;12.80;99.90;;;;;;5098883;28;20362;-75
2022/10/16 08:01:04;;;;;;;;;;;13.40;99.90;;;;;;5083739;28;19974;-76
2022/10/16 08:03:30;;;;;;;;;;;13.60;99.90;;;;;;5068005;28;20641;-76
2022/10/16 08:05:56;;;;;;;;;;;13.80;99.90;;;;;;5087284;28;19919;-75
2022/10/16 08:08:22;;;;;;;;;;;14.00;99.90;;;;;;5083673;28;19983;-75
2022/10/16 08:10:47;;;;;;;;;;;14.00;99.90;;;;;;5083685;28;20359;-76
2022/10/16 08:13:14;;;;;;;;;;;14.50;99.90;;;;;;5067200;28;19923;-76
2022/10/16 08:15:41;;;;;;;;;;;15.90;99.90;;;;;;5073519;28;20371;-75
2022/10/16 08:18:06;;;;;;;;;;;18.30;99.90;;;;;;5077154;28;20016;-76
2022/10/16 08:20:33;;;;;;;;;;;20.20;97.80;;;;;;5100709;28;19916;-76
2022/10/16 08:22:59;;;;;;;;;;;21.40;90.50;;;;;;5067233;28;19920;-76
2022/10/16 08:25:25;;;;;;;;;;;22.10;84.80;;;;;;5088109;28;19987;-76
2022/10/16 08:27:51;;;;;;;;;;;22.70;80.00;;;;;;5065399;28;19963;-76
2022/10/16 08:30:20;;;;;;;;;;;22.90;77.30;;;;;;5084322;28;19958;-77
2022/10/16 08:32:46;;;;;;;;;;;23.20;75.10;;;;;;5075731;28;19916;-77
2022/10/16 08:35:12;;;;;;;;;;;23.40;72.00;;;;;;5066366;28;20440;-75
2022/10/16 08:37:38;;;;;;;;;;;23.90;71.40;;;;;;5084767;28;19916;-76
2022/10/16 08:40:04;;;;;;;;;;;24.10;69.90;;;;;;5084421;28;19926;-77
2022/10/16 08:42:49;;;;;;;;;;;23.90;68.40;;;;;;5085975;28;19923;-77
2022/10/16 08:45:19;;;;;;;;;;;23.50;69.10;;;;;;5083223;28;19954;-77
2022/10/16 08:47:51;;;;;;;;;;;22.90;71.10;;;;;;5077250;28;19973;-77
2022/10/16 08:50:21;;;;;;;;;;;22.20;75.50;;;;;;5079903;28;20421;-76
2022/10/16 08:52:46;;;;;;;;;;;22.10;73.10;;;;;;5080698;28;19927;-76
2022/10/16 08:55:30;;;;;;;;;;;22.00;75.20;;;;;;5079887;28;19935;-76
2022/10/16 08:57:56;;;;;;;;;;;21.90;76.60;;;;;;5090217;27;19920;-76
2022/10/16 09:00:21;;;;;;;;;;;22.40;71.90;;;;;;5064191;28;20268;-77
2022/10/16 09:02:47;;;;;;;;;;;24.10;73.50;;;;;;5082392;28;19920;-76
2022/10/16 09:05:19;;;;;;;;;;;24.90;68.00;;;;;;5079846;28;19935;-76
2022/10/16 09:07:54;;;;;;;;;;;26.20;62.50;;;;;;5080742;28;19988;-77
2022/10/16 09:10:34;;;;;;;;;;;24.90;58.80;;;;;;5085834;28;19920;-76
2022/10/16 09:13:03;;;;;;;;;;;23.90;64.50;;;;;;5089396;28;19946;-76
2022/10/16 09:15:28;;;;;;;;;;;22.90;66.60;;;;;;5090741;27;19929;-77
2022/10/16 09:18:03;;;;;;;;;;;21.80;71.10;;;;;;5076537;28;20375;-77
2022/10/16 09:20:32;;;;;;;;;;;21.60;75.00;;;;;;5072640;28;20015;-76
2022/10/16 09:23:18;;;;;;;;;;;21.20;74.40;;;;;;5072929;28;20283;-78
2022/10/16 09:25:47;;;;;;;;;;;20.60;75.30;;;;;;5074868;28;19928;-77
2022/10/16 09:28:13;;;;;;;;;;;19.70;78.30;;;;;;5077821;28;20012;-77
2022/10/16 09:30:39;;;;;;;;;;;18.70;85.10;;;;;;5080699;28;19970;-77
2022/10/16 09:33:05;;;;;;;;;;;17.90;92.00;;;;;;5071116;28;19947;-77
2022/10/16 09:35:41;;;;;;;;;;;17.80;97.50;;;;;;5055615;28;19920;-77
2022/10/16 09:38:07;;;;;;;;;;;18.20;99.90;;;;;;5054364;28;19944;-77
2022/10/16 09:40:35;;;;;;;;;;;19.80;96.00;;;;;;5076939;28;19924;-81
2022/10/16 09:43:13;;;;;;;;;;;20.00;93.40;;;;;;5060176;28;19912;-80
2022/10/16 09:45:38;;;;;;;;;;;20.60;91.70;;;;;;5081552;28;21045;-81
2022/10/16 09:48:11;;;;;;;;;;;21.50;91.40;;;;;;5075584;28;19927;-81
2022/10/16 09:50:37;;;;;;;;;;;23.40;76.80;;;;;;5070021;28;21250;-81
2022/10/16 09:53:03;;;;;;;;;;;24.90;69.20;;;;;;5078442;28;19923;-80
2022/10/16 09:55:29;;;;;;;;;;;25.40;67.40;;;;;;5061370;28;19916;-81
2022/10/16 09:57:54;;;;;;;;;;;25.70;61.60;;;;;;5078689;28;20256;-81
2022/10/16 10:00:21;;;;;;;;;;;26.20;61.50;;;;;;5056229;28;20400;-80
2022/10/16 10:02:46;;;;;;;;;;;26.70;60.00;;;;;;5076578;28;19919;-81
2022/10/16 10:05:21;;;;;;;;;;;27.50;57.70;;;;;;5077064;28;19978;-80
2022/10/16 10:07:52;;;;;;;;;;;27.30;55.00;;;;;;5054825;28;20453;-80
2022/10/16 10:10:22;;;;;;;;;;;27.10;60.20;;;;;;5087465;27;19928;-80
2022/10/16 10:12:48;;;;;;;;;;;26.70;60.00;;;;;;5076326;28;20268;-81
2022/10/16 10:15:19;;;;;;;;;;;27.40;59.00;;;;;;5083858;28;20057;-80
2022/10/16 10:17:49;;;;;;;;;;;26.80;60.60;;;;;;5083920;28;19919;-81
2022/10/16 10:20:26;;;;;;;;;;;26.90;57.10;;;;;;5082959;28;19912;-81
2022/10/16 10:22:51;;;;;;;;;;;27.50;59.60;;;;;;5082194;28;19939;-81
2022/10/16 10:25:40;;;;;;;;;;;27.00;59.00;;;;;;5065028;28;20387;-80
2022/10/16 10:28:21;;;;;;;;;;;26.60;60.40;;;;;;5084487;28;19916;-80
2022/10/16 10:31:03;;;;;;;;;;;26.60;58.50;;;;;;5087841;28;19927;-80
2022/10/16 10:33:48;;;;;;;;;;;26.40;55.30;;;;;;5051503;28;21628;-81
2022/10/16 10:36:14;;;;;;;;;;;25.50;57.00;;;;;;4710678;28;10000113;-81
2022/10/16 10:38:49;;;;;;;;;;;24.10;60.00;;;;;;5100361;28;19916;-80
2022/10/16 10:41:29;;;;;;;;;;;23.10;63.10;;;;;;5093515;28;19922;-81
2022/10/16 10:43:58;;;;;;;;;;;22.10;68.70;;;;;;5098330;28;19915;-74
2022/10/16 10:46:33;;;;;;;;;;;21.10;71.60;;;;;;5091854;28;20109;-73
2022/10/16 10:49:08;;;;;;;;;;;20.60;74.80;;;;;;5078647;28;19955;-74
2022/10/16 10:51:43;;;;;;;;;;;20.30;78.40;;;;;;5082094;28;19967;-74
2022/10/16 10:54:11;;;;;;;;;;;20.50;78.10;;;;;;5079600;28;19915;-74
2022/10/16 10:56:36;;;;;;;;;;;20.50;75.30;;;;;;5082141;28;19916;-75
2022/10/16 10:59:02;;;;;;;;;;;20.50;83.50;;;;;;5080039;28;19933;-75
2022/10/16 11:01:37;;;;;;;;;;;20.40;82.00;;;;;;5085186;28;19912;-75
2022/10/16 11:04:03;;;;;;;;;;;20.60;85.10;;;;;;5066731;28;20410;-76
2022/10/16 11:06:28;;;;;;;;;;;21.00;79.30;;;;;;5062043;28;19913;-75
2022/10/16 11:08:57;;;;;;;;;;;21.50;75.70;;;;;;5081734;28;19923;-78
2022/10/16 11:11:29;;;;;;;;;;;21.70;74.20;;;;;;5050017;28;19925;-76
2022/10/16 11:14:05;;;;;;;;;;;21.50;76.10;;;;;;5092742;28;19912;-75
2022/10/16 11:16:43;;;;;;;;;;;21.30;77.40;;;;;;5057554;28;20005;-75
2022/10/16 11:19:19;;;;;;;;;;;21.20;83.60;;;;;;5079183;28;19916;-74
2022/10/16 11:22:05;;;;;;;;;;;21.10;82.40;;;;;;5070599;28;20374;-75
2022/10/16 11:24:40;;;;;;;;;;;20.70;81.10;;;;;;5065308;28;19999;-74
2022/10/16 11:27:07;;;;;;;;;;;20.30;82.80;;;;;;5075234;28;19916;-74
2022/10/16 11:29:35;;;;;;;;;;;20.00;86.90;;;;;;5085495;28;19978;-74
2022/10/16 11:32:04;;;;;;;;;;;19.70;89.60;;;;;;5076936;28;20133;-74
2022/10/16 11:34:49;;;;;;;;;;;19.50;90.30;;;;;;5087246;28;20148;-75
2022/10/16 11:37:19;;;;;;;;;;;19.40;90.40;;;;;;5076284;28;19985;-76
2022/10/16 11:39:46;;;;;;;;;;;19.30;92.00;;;;;;5080402;28;19923;-75
2022/10/16 11:42:25;;;;;;;;;;;19.30;92.40;;;;;;5098956;28;20014;-76
2022/10/16 11:44:51;;;;;;;;;;;19.40;93.30;;;;;;5064911;28;19923;-76
2022/10/16 11:47:31;;;;;;;;;;;19.50;92.70;;;;;;5101291;28;19916;-77
2022/10/16 11:50:02;;;;;;;;;;;19.60;93.90;;;;;;5077090;28;19927;-77
2022/10/16 11:52:36;;;;;;;;;;;19.70;93.70;;;;;;5065557;28;20248;-77
2022/10/16 11:55:05;;;;;;;;;;;19.80;96.90;;;;;;5079196;28;19912;-77
2022/10/16 11:57:33;;;;;;;;;;;19.90;92.30;;;;;;5050619;28;19921;-77
2022/10/16 12:00:01;;;;;;;;;;;19.80;94.30;;;;;;5073742;28;19916;-77
2022/10/16 12:02:49;;;;;;;;;;;19.80;93.60;;;;;;5082222;28;19923;-77
2022/10/16 12:05:29;;;;;;;;;;;19.80;95.30;;;;;;5061587;28;20042;-77
2022/10/16 12:07:55;;;;;;;;;;;19.70;98.60;;;;;;5087555;28;20231;-77
2022/10/16 12:10:22;;;;;;;;;;;19.60;95.20;;;;;;5091993;28;19928;-77
2022/10/16 12:12:48;;;;;;;;;;;19.60;96.90;;;;;;5079250;28;19916;-76
2022/10/16 12:15:20;;;;;;;;;;;19.50;93.10;;;;;;5066582;28;19916;-77
2022/10/16 12:17:45;;;;;;;;;;;19.30;96.00;;;;;;5085494;28;19916;-76
2022/10/16 12:20:11;;;;;;;;;;;19.30;98.50;;;;;;5102732;27;19916;-77
2022/10/16 12:22:36;;;;;;;;;;;19.20;94.20;;;;;;5062676;28;20313;-77
2022/10/16 12:25:02;;;;;;;;;;;19.20;91.30;;;;;;5084914;28;20450;-77
2022/10/16 12:27:29;;;;;;;;;;;19.10;91.70;;;;;;5075509;28;20343;-77
2022/10/16 12:29:59;;;;;;;;;;;19.00;90.80;;;;;;5086944;28;20204;-77
2022/10/16 12:32:28;;;;;;;;;;;18.90;94.80;;;;;;5097691;28;19927;-76
2022/10/16 12:34:53;;;;;;;;;;;18.80;99.50;;;;;;5084132;28;20343;-77
2022/10/16 12:37:22;;;;;;;;;;;18.80;96.80;;;;;;5091676;28;19924;-78
2022/10/16 12:39:49;;;;;;;;;;;18.80;94.10;;;;;;5087177;28;19908;-77
2022/10/16 12:42:27;;;;;;;;;;;18.70;94.60;;;;;;5100501;28;20483;-79
2022/10/16 12:44:53;;;;;;;;;;;18.50;95.10;;;;;;5086532;28;19918;-78
2022/10/16 12:47:42;;;;;;;;;;;18.40;96.30;;;;;;5084037;28;19939;-77
2022/10/16 12:50:23;;;;;;;;;;;18.40;97.30;;;;;;5086776;28;19916;-77
2022/10/16 12:52:49;;;;;;;;;;;18.40;98.90;;;;;;5098584;28;20022;-78
2022/10/16 12:55:17;;;;;;;;;;;18.30;99.90;;;;;;5101031;28;19965;-77
2022/10/16 12:57:54;;;;;;;;;;;18.40;99.90;;;;;;5084012;28;20395;-79
2022/10/16 13:00:25;;;;;;;;;;;18.30;99.90;;;;;;5077851;28;19916;-77
2022/10/16 13:02:54;;;;;;;;;;;18.30;99.90;;;;;;5085738;28;19916;-78
2022/10/16 13:05:26;;;;;;;;;;;18.10;99.90;;;;;;5083419;28;19923;-76
2022/10/16 13:07:51;;;;;;;;;;;18.10;99.90;;;;;;5082519;28;19983;-76
2022/10/16 13:10:23;;;;;;;;;;;18.00;99.90;;;;;;5095831;28;19920;-78
2022/10/16 13:13:01;;;;;;;;;;;18.10;99.90;;;;;;5115334;28;19923;-78
2022/10/16 13:15:35;;;;;;;;;;;18.00;99.90;;;;;;4742503;28;10000047;-77
2022/10/16 13:18:00;;;;;;;;;;;18.00;99.90;;;;;;5093190;28;19924;-76
2022/10/16 13:20:26;;;;;;;;;;;17.90;99.90;;;;;;5094452;28;19975;-77
2022/10/16 13:23:11;;;;;;;;;;;17.80;99.90;;;;;;5106574;28;20015;-75
2022/10/16 13:26:01;;;;;;;;;;;17.80;99.90;;;;;;5078633;28;19927;-76
2022/10/16 13:28:28;;;;;;;;;;;17.80;99.90;;;;;;5086721;28;19919;-77
2022/10/16 13:30:56;;;;;;;;;;;17.80;99.90;;;;;;5056081;28;20462;-77
2022/10/16 13:33:36;;;;;;;;;;;17.70;99.90;;;;;;5101806;28;19912;-77
2022/10/16 13:36:02;;;;;;;;;;;17.70;99.90;;;;;;5080164;28;19956;-77
2022/10/16 13:38:30;;;;;;;;;;;17.60;99.90;;;;;;5059751;28;19916;-77
2022/10/16 13:41:00;;;;;;;;;;;17.50;99.90;;;;;;4712290;28;10000005;-77
2022/10/16 13:43:32;;;;;;;;;;;17.40;99.90;;;;;;5094539;27;20317;-77
2022/10/16 13:46:04;;;;;;;;;;;17.40;99.90;;;;;;5095984;28;20026;-77
2022/10/16 13:48:30;;;;;;;;;;;17.40;99.90;;;;;;5097148;28;19919;-76
2022/10/16 13:51:03;;;;;;;;;;;17.40;99.90;;;;;;5069579;28;19923;-77
2022/10/16 13:53:35;;;;;;;;;;;17.30;99.90;;;;;;5077145;28;20044;-77
2022/10/16 13:56:02;;;;;;;;;;;17.30;99.90;;;;;;5062093;28;19912;-77
2022/10/16 13:58:28;;;;;;;;;;;17.20;99.90;;;;;;5078260;28;20382;-77
2022/10/16 14:00:57;;;;;;;;;;;17.20;99.90;;;;;;5079615;28;20404;-78
2022/10/16 14:03:23;;;;;;;;;;;17.30;99.90;;;;;;5069286;28;19965;-77
2022/10/16 14:05:51;;;;;;;;;;;17.30;99.90;;;;;;5089397;28;20003;-77
2022/10/16 14:08:17;;;;;;;;;;;17.30;99.90;;;;;;5065818;28;19943;-77
2022/10/16 14:10:47;;;;;;;;;;;17.20;99.90;;;;;;5065993;28;20384;-77
2022/10/16 14:13:14;;;;;;;;;;;17.20;99.90;;;;;;5072991;28;19951;-77
2022/10/16 14:15:40;;;;;;;;;;;17.10;99.90;;;;;;5054032;28;19982;-77
2022/10/16 14:18:05;;;;;;;;;;;17.00;99.90;;;;;;5074333;28;20356;-77
2022/10/16 14:20:32;;;;;;;;;;;16.90;99.90;;;;;;5070868;28;19915;-77
2022/10/16 14:23:02;;;;;;;;;;;16.90;99.90;;;;;;5074081;28;20019;-77